Terminal Aerodrome Forecast
Issued by NWS Buffalo, NY

Home | Current Version | Previous Version | Text Only | Print | Product List | Glossary On
Versions: 1 2 3 4 5 6 7 8 9 10 11 12 13 14 15 16 17 18 19 20 21 22 23 24 25 26 27 28 29 30
000
FTUS41 KBUF 081748
TAFART
TAF
KART 081748Z 0818/0918 09007KT P6SM BKN110
     FM082100 05009KT P6SM SCT050 OVC100
     FM090600 06007KT 5SM -SN OVC045
     FM091300 05007KT P6SM VCSH OVC030
     FM091400 06007KT P6SM OVC030=

USA.gov is the U.S. government's official web portal to all federal, state and local government web resources and services.